Barrhead, Canada
Current Conditions -  °F | °C
As of 6:00 AM on Thursday 30 Oct 2014 (Local Time) from CZVL Reporting Station
Haze Haze  
Wind Chill: 25°   Ceiling: 600
Heat Index: 32°   Visibility: 5mi
Dew Point: 32°   Wind: 8mph
Humidity: 100%   Direction: 150°SSE
Pressure: 30.22"   Gusts: NA
Location:  54.12°N, 114.4°W
Report Text: CZVL 301200Z AUTO 15007KT 5SM BR OVC006 00/M00 A3022 RMK SLP263
Loading
Personal Weather Stations






























Interactive Weather Map
Tropical Storm Tracking
New forecast layout! Learn more

10-Day Weather Forecast

Advertisements
Track Severe Weather on mobile